Time;durP1;ratioP1;P1;durP2;ratioP2;P2;SDS_P1;SDS_P2;PMS_P1;PMS_P2;Temp;Humidity;BMP_temperature;BMP_pressure;BME280_temperature;BME280_humidity;BME280_pressure;Samples;Min_cycle;Max_cycle;Signal;HPM_P1;HPM_P2
2023/01/08 00:02:09;;;;;;;3.70;1.98;;;;;;;;;;4952631;28;20035;-69
2023/01/08 00:04:35;;;;;;;6.60;2.10;;;;;;;;;;4965687;28;20050;-77
2023/01/08 00:07:01;;;;;;;4.55;2.35;;;;;;;;;;4961598;28;20125;-79
2023/01/08 00:09:27;;;;;;;4.13;2.15;;;;;;;;;;4962335;28;20090;-74
2023/01/08 00:11:53;;;;;;;4.32;2.10;;;;;;;;;;4956843;28;20050;-76
2023/01/08 00:14:19;;;;;;;3.90;2.10;;;;;;;;;;4958715;28;20230;-76
2023/01/08 00:16:45;;;;;;;4.25;2.17;;;;;;;;;;4962751;28;20125;-72
2023/01/08 00:19:12;;;;;;;3.35;1.90;;;;;;;;;;4952643;28;20078;-71
2023/01/08 00:21:38;;;;;;;3.83;2.47;;;;;;;;;;4962124;28;20055;-74
2023/01/08 00:24:04;;;;;;;6.32;2.10;;;;;;;;;;4962146;28;20055;-71
2023/01/08 00:26:30;;;;;;;4.95;2.45;;;;;;;;;;4967650;28;20051;-71
2023/01/08 00:28:56;;;;;;;4.30;2.05;;;;;;;;;;4967321;28;20068;-72
2023/01/08 00:31:22;;;;;;;4.30;1.92;;;;;;;;;;4953437;28;20389;-73
2023/01/08 00:33:48;;;;;;;5.22;2.10;;;;;;;;;;4963953;28;20051;-71
2023/01/08 00:36:16;;;;;;;6.35;2.15;;;;;;;;;;4956369;28;20051;-73
2023/01/08 00:38:44;;;;;;;3.63;2.10;;;;;;;;;;4948049;28;20055;-70
2023/01/08 00:41:11;;;;;;;3.92;2.10;;;;;;;;;;4959332;28;20050;-71
2023/01/08 00:43:38;;;;;;;5.38;2.72;;;;;;;;;;4963310;28;20059;-69
2023/01/08 00:46:04;;;;;;;5.22;2.50;;;;;;;;;;4959356;28;20069;-70
2023/01/08 00:48:32;;;;;;;4.97;2.20;;;;;;;;;;4958171;28;20078;-68
2023/01/08 00:51:01;;;;;;;5.15;1.88;;;;;;;;;;4956189;28;20055;-69
2023/01/08 00:53:27;;;;;;;2.83;1.75;;;;;;;;;;4959911;28;20051;-70
2023/01/08 00:56:01;;;;;;;4.65;2.30;;;;;;;;;;4961287;28;20617;-68
2023/01/08 00:58:28;;;;;;;4.55;2.20;;;;;;;;;;4957710;28;20425;-79
2023/01/08 01:00:53;;;;;;;5.97;2.38;;;;;;;;;;4962588;28;20043;-69
2023/01/08 01:03:19;;;;;;;4.32;2.00;;;;;;;;;;4960514;28;20496;-80
2023/01/08 01:05:45;;;;;;;4.07;2.28;;;;;;;;;;4954373;28;20055;-68
2023/01/08 01:08:11;;;;;;;7.15;2.30;;;;;;;;;;4960694;28;20728;-74
2023/01/08 01:10:38;;;;;;;4.40;2.00;;;;;;;;;;4957717;28;20055;-73
2023/01/08 01:13:05;;;;;;;3.95;2.08;;;;;;;;;;4954113;28;20121;-70
2023/01/08 01:15:31;;;;;;;5.65;2.13;;;;;;;;;;4956731;28;20070;-73
2023/01/08 01:17:57;;;;;;;5.20;2.08;;;;;;;;;;4964189;28;20097;-77
2023/01/08 01:20:23;;;;;;;9.75;2.45;;;;;;;;;;4964014;28;20043;-76
2023/01/08 01:22:49;;;;;;;5.38;2.42;;;;;;;;;;4954329;28;20444;-70
2023/01/08 01:25:16;;;;;;;5.20;2.70;;;;;;;;;;4966991;28;20047;-70
2023/01/08 01:27:42;;;;;;;6.03;2.30;;;;;;;;;;4955232;28;20062;-75
2023/01/08 01:30:08;;;;;;;3.67;2.20;;;;;;;;;;4965489;28;20087;-78
2023/01/08 01:32:34;;;;;;;3.22;2.22;;;;;;;;;;4958322;28;20485;-70
2023/01/08 01:35:01;;;;;;;5.72;2.45;;;;;;;;;;4964664;28;20055;-72
2023/01/08 01:37:27;;;;;;;3.05;1.98;;;;;;;;;;4961261;28;20086;-78
2023/01/08 01:39:54;;;;;;;4.65;2.30;;;;;;;;;;4958833;28;20089;-68
2023/01/08 01:42:39;;;;;;;4.90;2.17;;;;;;;;;;4960241;28;20518;-70
2023/01/08 01:45:28;;;;;;;4.25;2.17;;;;;;;;;;4958405;28;20051;-70
2023/01/08 01:48:16;;;;;;;5.80;2.38;;;;;;;;;;4958193;28;20516;-68
2023/01/08 01:50:47;;;;;;;4.72;2.40;;;;;;;;;;4960459;28;20572;-70
2023/01/08 01:53:16;;;;;;;3.90;1.95;;;;;;;;;;4962336;28;20070;-68
2023/01/08 01:55:43;;;;;;;4.55;2.33;;;;;;;;;;4954001;28;20582;-78
2023/01/08 01:58:19;;;;;;;3.78;1.98;;;;;;;;;;4961374;28;20047;-68
2023/01/08 02:00:45;;;;;;;3.45;2.17;;;;;;;;;;4963081;28;20067;-77
2023/01/08 02:03:14;;;;;;;5.10;2.22;;;;;;;;;;4954044;28;20063;-72
2023/01/08 02:06:06;;;;;;;5.07;2.42;;;;;;;;;;4955246;28;20043;-75
2023/01/08 02:08:32;;;;;;;4.10;2.17;;;;;;;;;;4955723;28;20469;-76
2023/01/08 02:11:11;;;;;;;6.60;2.15;;;;;;;;;;4961760;28;20043;-71
2023/01/08 02:13:41;;;;;;;5.50;2.40;;;;;;;;;;4968954;28;20051;-80
2023/01/08 02:16:10;;;;;;;6.47;2.42;;;;;;;;;;4958594;28;20350;-72
2023/01/08 02:18:49;;;;;;;4.20;1.88;;;;;;;;;;4969727;28;20182;-72
2023/01/08 02:21:43;;;;;;;4.57;2.58;;;;;;;;;;4964265;28;20497;-72
2023/01/08 02:24:18;;;;;;;4.43;2.10;;;;;;;;;;4960742;28;20057;-70
2023/01/08 02:26:45;;;;;;;6.93;2.40;;;;;;;;;;4959469;28;20282;-68
2023/01/08 02:29:16;;;;;;;4.20;2.03;;;;;;;;;;4962358;28;20047;-73
2023/01/08 02:31:42;;;;;;;5.22;2.30;;;;;;;;;;4959771;28;20540;-73
2023/01/08 02:34:10;;;;;;;3.10;2.22;;;;;;;;;;4960786;28;20393;-68
2023/01/08 02:36:40;;;;;;;4.75;2.60;;;;;;;;;;4958598;28;20054;-71
2023/01/08 02:39:24;;;;;;;4.68;2.35;;;;;;;;;;4958618;28;20463;-67
2023/01/08 02:42:06;;;;;;;4.18;2.15;;;;;;;;;;4967511;28;20114;-68
2023/01/08 02:44:34;;;;;;;3.10;2.22;;;;;;;;;;4957039;28;20051;-71
2023/01/08 02:47:04;;;;;;;5.55;2.10;;;;;;;;;;4952899;28;20106;-73
2023/01/08 02:49:34;;;;;;;3.90;2.30;;;;;;;;;;4960444;28;20113;-68
2023/01/08 02:52:03;;;;;;;4.22;1.98;;;;;;;;;;4965164;28;20065;-76
2023/01/08 02:54:32;;;;;;;3.67;2.00;;;;;;;;;;4959899;28;20101;-77
2023/01/08 02:57:03;;;;;;;4.18;2.33;;;;;;;;;;4957893;28;20143;-75
2023/01/08 02:59:31;;;;;;;3.40;2.28;;;;;;;;;;4963325;28;20059;-70
2023/01/08 03:01:58;;;;;;;4.32;1.98;;;;;;;;;;4960914;28;20059;-71
2023/01/08 03:04:25;;;;;;;4.88;2.22;;;;;;;;;;4961990;28;20047;-73
2023/01/08 03:06:51;;;;;;;5.57;2.05;;;;;;;;;;4954099;28;20043;-79
2023/01/08 03:09:18;;;;;;;4.88;2.30;;;;;;;;;;4958061;28;20066;-69
2023/01/08 03:11:53;;;;;;;3.67;2.25;;;;;;;;;;4959176;28;20519;-68
2023/01/08 03:14:44;;;;;;;4.05;2.30;;;;;;;;;;4958287;28;20057;-72
2023/01/08 03:17:22;;;;;;;3.70;2.00;;;;;;;;;;4958453;28;20078;-74
2023/01/08 03:20:01;;;;;;;2.45;1.67;;;;;;;;;;4959929;28;20042;-72
2023/01/08 03:22:29;;;;;;;4.97;1.90;;;;;;;;;;4953299;28;20503;-74
2023/01/08 03:24:58;;;;;;;3.88;2.03;;;;;;;;;;4957657;28;20129;-73
2023/01/08 03:27:29;;;;;;;4.28;1.98;;;;;;;;;;4958635;28;20496;-78
2023/01/08 03:29:58;;;;;;;5.80;2.28;;;;;;;;;;4959928;28;20070;-70
2023/01/08 03:32:27;;;;;;;4.60;2.45;;;;;;;;;;4955689;28;20171;-69
2023/01/08 03:34:55;;;;;;;4.18;2.28;;;;;;;;;;4963053;28;20043;-68
2023/01/08 03:37:27;;;;;;;2.65;2.08;;;;;;;;;;4971265;28;20051;-71
2023/01/08 03:40:00;;;;;;;4.20;2.10;;;;;;;;;;4956980;28;20051;-69
2023/01/08 03:42:29;;;;;;;4.18;2.08;;;;;;;;;;4963103;28;20054;-78
2023/01/08 03:44:55;;;;;;;4.53;2.47;;;;;;;;;;4956341;28;20051;-68
2023/01/08 03:47:23;;;;;;;2.95;2.00;;;;;;;;;;4962898;28;20081;-72
2023/01/08 03:49:51;;;;;;;3.63;2.15;;;;;;;;;;4955958;28;20051;-78
2023/01/08 03:52:21;;;;;;;4.32;2.10;;;;;;;;;;4955169;28;20174;-75
2023/01/08 03:54:48;;;;;;;4.30;2.28;;;;;;;;;;4955007;28;20043;-77
2023/01/08 03:57:13;;;;;;;3.45;1.90;;;;;;;;;;4957287;28;20039;-70
2023/01/08 03:59:39;;;;;;;5.57;2.05;;;;;;;;;;4954797;28;20046;-78
2023/01/08 04:02:05;;;;;;;4.25;2.13;;;;;;;;;;4954365;28;20054;-69
2023/01/08 04:04:31;;;;;;;2.70;1.70;;;;;;;;;;4956839;28;20055;-73
2023/01/08 04:06:57;;;;;;;2.85;1.80;;;;;;;;;;4961058;28;20085;-73
2023/01/08 04:09:23;;;;;;;3.63;2.10;;;;;;;;;;4963465;28;20429;-73
2023/01/08 04:11:49;;;;;;;3.90;2.03;;;;;;;;;;4963873;28;20067;-68
2023/01/08 04:14:15;;;;;;;4.47;2.00;;;;;;;;;;4957100;28;20047;-68
2023/01/08 04:16:41;;;;;;;2.92;1.85;;;;;;;;;;4959911;28;20047;-76
2023/01/08 04:19:07;;;;;;;2.60;2.00;;;;;;;;;;4950446;28;20043;-71
2023/01/08 04:21:32;;;;;;;2.58;1.77;;;;;;;;;;4957183;28;20173;-68
2023/01/08 04:23:58;;;;;;;2.65;1.75;;;;;;;;;;4948527;28;20106;-76
2023/01/08 04:26:24;;;;;;;3.53;1.75;;;;;;;;;;4966129;28;20046;-71
2023/01/08 04:28:50;;;;;;;3.58;1.70;;;;;;;;;;4957546;28;20059;-69
2023/01/08 04:31:16;;;;;;;5.10;2.05;;;;;;;;;;4958108;28;20054;-73
2023/01/08 04:33:42;;;;;;;2.90;1.75;;;;;;;;;;4962283;28;20174;-72
2023/01/08 04:36:08;;;;;;;3.40;2.00;;;;;;;;;;4958306;28;20064;-70
2023/01/08 04:38:35;;;;;;;2.50;1.77;;;;;;;;;;4957573;28;20113;-69
2023/01/08 04:41:01;;;;;;;4.05;1.80;;;;;;;;;;4951280;28;20062;-69
2023/01/08 04:43:28;;;;;;;4.53;1.92;;;;;;;;;;4958262;28;20054;-75
2023/01/08 04:45:58;;;;;;;5.00;1.65;;;;;;;;;;4958993;28;20061;-71
2023/01/08 04:48:25;;;;;;;5.03;1.95;;;;;;;;;;4954715;28;20055;-77
2023/01/08 04:50:51;;;;;;;3.28;1.80;;;;;;;;;;4958643;28;20177;-68
2023/01/08 04:53:17;;;;;;;3.00;2.00;;;;;;;;;;4952772;28;20053;-72
2023/01/08 04:55:43;;;;;;;3.63;1.80;;;;;;;;;;4955830;28;20745;-68
2023/01/08 04:58:09;;;;;;;6.43;1.83;;;;;;;;;;4958818;28;20046;-68
2023/01/08 05:00:35;;;;;;;2.47;1.48;;;;;;;;;;4958008;28;20404;-74
2023/01/08 05:03:01;;;;;;;4.68;1.95;;;;;;;;;;4950854;28;20055;-73
2023/01/08 05:05:27;;;;;;;4.70;1.90;;;;;;;;;;4961471;28;20042;-73
2023/01/08 05:07:53;;;;;;;2.38;1.60;;;;;;;;;;4952320;28;20605;-69
2023/01/08 05:10:18;;;;;;;3.50;1.60;;;;;;;;;;4952716;28;20050;-68
2023/01/08 05:12:44;;;;;;;2.10;1.33;;;;;;;;;;4962419;28;20061;-70
2023/01/08 05:15:10;;;;;;;2.78;1.38;;;;;;;;;;4956702;28;20051;-75
2023/01/08 05:17:36;;;;;;;2.85;1.50;;;;;;;;;;4956110;28;20063;-70
2023/01/08 05:20:02;;;;;;;2.55;1.60;;;;;;;;;;4957889;28;20129;-74
2023/01/08 05:22:28;;;;;;;2.13;1.42;;;;;;;;;;4955259;28;20042;-69
2023/01/08 05:24:54;;;;;;;1.50;1.30;;;;;;;;;;4957361;28;20128;-75
2023/01/08 05:27:20;;;;;;;1.60;1.20;;;;;;;;;;4956439;28;20497;-74
2023/01/08 05:29:46;;;;;;;4.05;1.40;;;;;;;;;;4957748;28;20106;-70
2023/01/08 05:32:17;;;;;;;2.25;1.40;;;;;;;;;;4948928;28;20043;-70
2023/01/08 05:34:43;;;;;;;2.72;1.38;;;;;;;;;;4953764;28;20046;-70
2023/01/08 05:37:10;;;;;;;1.58;1.30;;;;;;;;;;4951013;28;20892;-71
2023/01/08 05:39:36;;;;;;;2.88;1.60;;;;;;;;;;4953949;28;20461;-69
2023/01/08 05:42:03;;;;;;;1.88;1.40;;;;;;;;;;4955291;28;20504;-78
2023/01/08 05:44:29;;;;;;;2.25;1.25;;;;;;;;;;4953918;28;20043;-74
2023/01/08 05:46:56;;;;;;;1.90;1.50;;;;;;;;;;4954274;28;20067;-72
2023/01/08 05:49:22;;;;;;;1.63;1.30;;;;;;;;;;4958460;28;20074;-77
2023/01/08 05:51:49;;;;;;;2.72;1.48;;;;;;;;;;4953117;28;20733;-72
2023/01/08 05:54:15;;;;;;;2.53;1.50;;;;;;;;;;4954307;28;20468;-68
2023/01/08 05:56:42;;;;;;;3.35;1.70;;;;;;;;;;4957989;28;20058;-71
2023/01/08 05:59:12;;;;;;;3.55;1.80;;;;;;;;;;4957695;28;20672;-76
2023/01/08 06:01:38;;;;;;;5.43;2.03;;;;;;;;;;4952308;28;20070;-70
2023/01/08 06:04:04;;;;;;;5.88;2.20;;;;;;;;;;4953137;28;20384;-73
2023/01/08 06:06:30;;;;;;;4.45;2.08;;;;;;;;;;4949980;28;20128;-70
2023/01/08 06:08:56;;;;;;;6.10;2.47;;;;;;;;;;4959651;28;20089;-76
2023/01/08 06:11:22;;;;;;;3.08;1.77;;;;;;;;;;4953422;28;20150;-73
2023/01/08 06:13:48;;;;;;;4.07;2.28;;;;;;;;;;4950462;28;20053;-70
2023/01/08 06:16:16;;;;;;;3.90;1.80;;;;;;;;;;4957642;28;20478;-69
2023/01/08 06:18:42;;;;;;;4.55;1.88;;;;;;;;;;4960754;28;20464;-72
2023/01/08 06:21:08;;;;;;;4.18;2.00;;;;;;;;;;4957581;28;20178;-71
2023/01/08 06:23:34;;;;;;;4.25;1.90;;;;;;;;;;4952093;28;20051;-73
2023/01/08 06:26:02;;;;;;;9.20;2.00;;;;;;;;;;4950138;28;20142;-81
2023/01/08 06:28:29;;;;;;;9.10;2.35;;;;;;;;;;4959461;28;20054;-67
2023/01/08 06:30:59;;;;;;;2.45;1.67;;;;;;;;;;4951298;28;20058;-73
2023/01/08 06:33:25;;;;;;;5.47;1.80;;;;;;;;;;4955729;28;20063;-75
2023/01/08 06:35:51;;;;;;;3.90;1.85;;;;;;;;;;4947847;28;20075;-71
2023/01/08 06:38:18;;;;;;;2.63;1.80;;;;;;;;;;4952635;28;20043;-75
2023/01/08 06:40:47;;;;;;;4.00;1.90;;;;;;;;;;4957820;28;20080;-74
2023/01/08 06:43:13;;;;;;;6.07;2.00;;;;;;;;;;4962126;28;20598;-70
2023/01/08 06:45:39;;;;;;;7.28;2.15;;;;;;;;;;4954607;28;20050;-78
2023/01/08 06:48:06;;;;;;;3.65;1.92;;;;;;;;;;4957800;28;20456;-74
2023/01/08 06:50:33;;;;;;;4.45;1.98;;;;;;;;;;4952444;28;20129;-77
2023/01/08 06:52:59;;;;;;;4.40;2.00;;;;;;;;;;4949707;28;20137;-73
2023/01/08 06:55:25;;;;;;;3.13;1.90;;;;;;;;;;4956924;28;20109;-67
2023/01/08 06:57:55;;;;;;;2.65;1.67;;;;;;;;;;4959357;28;20043;-75
2023/01/08 07:00:22;;;;;;;5.13;2.00;;;;;;;;;;4959250;28;20058;-67
2023/01/08 07:02:49;;;;;;;7.15;1.92;;;;;;;;;;4956127;28;20464;-71
2023/01/08 07:05:15;;;;;;;3.45;1.63;;;;;;;;;;4956072;28;20059;-76
2023/01/08 07:07:41;;;;;;;4.05;2.00;;;;;;;;;;4956956;28;20505;-72
2023/01/08 07:10:08;;;;;;;5.65;1.90;;;;;;;;;;4964344;28;20054;-74
2023/01/08 07:12:34;;;;;;;8.52;1.83;;;;;;;;;;4954306;28;20077;-71
2023/01/08 07:15:00;;;;;;;4.57;2.13;;;;;;;;;;4964467;28;20338;-71
2023/01/08 07:17:26;;;;;;;6.25;2.15;;;;;;;;;;4959114;28;20059;-69
2023/01/08 07:19:53;;;;;;;3.53;2.00;;;;;;;;;;4956069;28;20086;-74
2023/01/08 07:22:20;;;;;;;7.60;2.33;;;;;;;;;;4948900;28;20122;-69
2023/01/08 07:24:45;;;;;;;3.60;1.98;;;;;;;;;;4957449;28;20047;-76
2023/01/08 07:27:11;;;;;;;6.43;2.00;;;;;;;;;;4957087;28;20054;-73
2023/01/08 07:29:37;;;;;;;3.10;2.10;;;;;;;;;;4956189;28;20057;-72
2023/01/08 07:32:03;;;;;;;4.47;2.00;;;;;;;;;;4953036;28;20495;-78
2023/01/08 07:34:29;;;;;;;2.97;1.52;;;;;;;;;;4957557;28;21237;-69
2023/01/08 07:36:55;;;;;;;3.33;1.92;;;;;;;;;;4955140;28;20113;-70
2023/01/08 07:39:21;;;;;;;4.85;2.00;;;;;;;;;;4951860;28;20050;-70
2023/01/08 07:41:47;;;;;;;3.85;1.88;;;;;;;;;;4954584;28;20046;-73
2023/01/08 07:44:13;;;;;;;4.45;2.10;;;;;;;;;;4958537;28;20066;-74
2023/01/08 07:46:39;;;;;;;3.10;1.65;;;;;;;;;;4956766;28;20062;-74
2023/01/08 07:49:05;;;;;;;4.63;2.00;;;;;;;;;;4956355;28;20699;-72
2023/01/08 07:51:31;;;;;;;3.10;2.35;;;;;;;;;;4956979;28;20133;-71
2023/01/08 07:53:56;;;;;;;2.38;1.50;;;;;;;;;;4954586;28;21249;-73
2023/01/08 07:56:24;;;;;;;4.50;1.75;;;;;;;;;;4952916;28;21019;-70
2023/01/08 07:58:50;;;;;;;4.57;2.20;;;;;;;;;;4955602;28;20050;-71
2023/01/08 08:01:16;;;;;;;2.60;1.95;;;;;;;;;;4950216;28;20062;-77
2023/01/08 08:03:42;;;;;;;2.92;1.88;;;;;;;;;;4954936;28;20070;-77
2023/01/08 08:06:09;;;;;;;2.15;1.00;;;;;;;;;;4955886;28;20263;-73
2023/01/08 08:08:35;;;;;;;2.03;1.27;;;;;;;;;;4955265;28;20051;-73
2023/01/08 08:11:01;;;;;;;5.93;1.17;;;;;;;;;;4957277;28;20164;-78
2023/01/08 08:13:27;;;;;;;1.30;0.90;;;;;;;;;;4954578;28;20078;-77
2023/01/08 08:15:53;;;;;;;1.25;0.90;;;;;;;;;;4958092;28;20058;-71
2023/01/08 08:18:19;;;;;;;0.90;0.75;;;;;;;;;;4960262;28;20051;-76
2023/01/08 08:20:46;;;;;;;0.98;0.70;;;;;;;;;;4956887;28;20556;-79
2023/01/08 08:23:13;;;;;;;4.10;0.90;;;;;;;;;;4961161;28;20582;-74
2023/01/08 08:25:40;;;;;;;1.27;0.85;;;;;;;;;;4963941;28;20340;-71
2023/01/08 08:28:08;;;;;;;1.33;0.70;;;;;;;;;;4953419;28;20072;-79
2023/01/08 08:30:35;;;;;;;1.45;0.70;;;;;;;;;;4953955;28;20192;-73
2023/01/08 08:33:03;;;;;;;1.00;0.60;;;;;;;;;;4954073;28;20058;-69
2023/01/08 08:35:30;;;;;;;0.63;0.60;;;;;;;;;;4957614;28;20058;-73
2023/01/08 08:37:57;;;;;;;0.68;0.63;;;;;;;;;;4953488;28;20075;-80
2023/01/08 08:40:24;;;;;;;0.70;0.70;;;;;;;;;;4959471;28;20058;-70
2023/01/08 08:42:57;;;;;;;0.98;0.85;;;;;;;;;;4954778;28;20055;-77
2023/01/08 08:45:24;;;;;;;1.40;0.60;;;;;;;;;;4971750;28;20412;-77
2023/01/08 08:47:50;;;;;;;0.93;0.60;;;;;;;;;;4950605;28;20145;-72
2023/01/08 08:50:16;;;;;;;0.70;0.70;;;;;;;;;;4953295;28;20105;-79
2023/01/08 08:52:43;;;;;;;1.58;0.73;;;;;;;;;;4957738;28;20051;-74
2023/01/08 08:55:14;;;;;;;0.77;0.70;;;;;;;;;;4958400;28;20042;-81
2023/01/08 08:57:39;;;;;;;0.73;0.70;;;;;;;;;;4958227;28;20042;-79
2023/01/08 09:00:06;;;;;;;0.82;0.70;;;;;;;;;;4956739;28;20062;-74
2023/01/08 09:02:32;;;;;;;1.15;0.60;;;;;;;;;;4952855;28;20050;-80
2023/01/08 09:04:58;;;;;;;0.95;0.60;;;;;;;;;;4971645;28;20148;-74
2023/01/08 09:07:24;;;;;;;0.52;0.50;;;;;;;;;;4954182;28;20051;-70
2023/01/08 09:09:50;;;;;;;0.93;0.40;;;;;;;;;;4959271;28;20086;-75
2023/01/08 09:12:16;;;;;;;0.50;0.40;;;;;;;;;;4958745;28;20069;-72
2023/01/08 09:14:42;;;;;;;0.68;0.60;;;;;;;;;;4957656;28;20053;-79
2023/01/08 09:17:08;;;;;;;0.65;0.30;;;;;;;;;;4953334;28;20047;-76
2023/01/08 09:19:34;;;;;;;0.82;0.43;;;;;;;;;;4956042;28;20051;-75
2023/01/08 09:22:01;;;;;;;0.73;0.60;;;;;;;;;;4956202;28;20055;-76
2023/01/08 09:24:31;;;;;;;2.38;0.47;;;;;;;;;;4953947;28;20149;-71
2023/01/08 09:26:57;;;;;;;0.80;0.70;;;;;;;;;;4953872;28;20876;-80
2023/01/08 09:29:23;;;;;;;1.38;0.60;;;;;;;;;;4955855;28;20059;-75
2023/01/08 09:31:49;;;;;;;2.55;0.60;;;;;;;;;;4957212;28;20057;-72
2023/01/08 09:34:16;;;;;;;4.63;0.70;;;;;;;;;;4957764;28;20051;-79
2023/01/08 09:36:41;;;;;;;3.97;0.90;;;;;;;;;;4960329;28;20081;-71
2023/01/08 09:39:09;;;;;;;1.70;0.45;;;;;;;;;;4960793;28;20113;-69
2023/01/08 09:41:39;;;;;;;1.23;0.80;;;;;;;;;;4957373;28;20047;-80
2023/01/08 09:44:06;;;;;;;0.68;0.30;;;;;;;;;;4962027;28;20043;-70
2023/01/08 09:46:33;;;;;;;0.85;0.60;;;;;;;;;;4961397;28;20389;-71
2023/01/08 09:49:09;;;;;;;0.75;0.50;;;;;;;;;;4959196;28;20501;-69
2023/01/08 09:51:36;;;;;;;0.57;0.55;;;;;;;;;;4949853;28;20043;-76
2023/01/08 09:54:06;;;;;;;0.98;0.63;;;;;;;;;;4944064;28;20050;-76
2023/01/08 09:56:35;;;;;;;1.52;0.70;;;;;;;;;;4948101;28;20104;-69
2023/01/08 09:59:04;;;;;;;2.10;0.68;;;;;;;;;;4951620;28;20051;-78
2023/01/08 10:01:35;;;;;;;0.73;0.50;;;;;;;;;;4964608;28;20460;-73
2023/01/08 10:04:10;;;;;;;2.65;0.60;;;;;;;;;;4954680;28;20480;-79
2023/01/08 10:06:36;;;;;;;0.73;0.60;;;;;;;;;;4957015;28;20444;-69
2023/01/08 10:09:02;;;;;;;8.07;1.38;;;;;;;;;;4957346;28;20058;-73
2023/01/08 10:11:37;;;;;;;2.92;1.13;;;;;;;;;;4955067;28;20054;-71
2023/01/08 10:14:07;;;;;;;2.95;1.52;;;;;;;;;;4958398;28;20271;-75
2023/01/08 10:16:36;;;;;;;2.58;1.40;;;;;;;;;;4951071;28;20051;-79
2023/01/08 10:19:03;;;;;;;3.20;1.63;;;;;;;;;;4953428;28;20058;-69
2023/01/08 10:21:38;;;;;;;6.20;2.63;;;;;;;;;;4960975;28;20039;-72
2023/01/08 10:24:04;;;;;;;5.95;1.77;;;;;;;;;;4954588;28;21750;-71
2023/01/08 10:26:35;;;;;;;2.88;1.80;;;;;;;;;;4963396;28;20046;-67
2023/01/08 10:29:13;;;;;;;4.60;2.30;;;;;;;;;;4960152;28;20066;-68
2023/01/08 10:31:54;;;;;;;5.68;2.05;;;;;;;;;;4951699;28;20771;-72
2023/01/08 10:34:24;;;;;;;6.13;1.70;;;;;;;;;;4956594;28;20058;-73
2023/01/08 10:36:52;;;;;;;5.38;1.92;;;;;;;;;;4961893;28;22518;-79
2023/01/08 10:39:29;;;;;;;8.35;3.35;;;;;;;;;;4962173;28;20043;-75
2023/01/08 10:42:02;;;;;;;5.25;2.58;;;;;;;;;;4957676;28;20059;-71
2023/01/08 10:44:30;;;;;;;5.72;3.08;;;;;;;;;;4959598;28;20054;-76
2023/01/08 10:46:59;;;;;;;5.75;2.90;;;;;;;;;;4950281;28;20098;-76
2023/01/08 10:49:42;;;;;;;6.43;2.72;;;;;;;;;;4947163;28;20062;-78
2023/01/08 10:52:35;;;;;;;6.32;2.88;;;;;;;;;;4958071;28;20047;-77
2023/01/08 10:55:20;;;;;;;5.82;3.05;;;;;;;;;;4953866;28;20138;-72
2023/01/08 10:58:07;;;;;;;7.05;2.72;;;;;;;;;;4955132;28;20047;-73
2023/01/08 11:00:35;;;;;;;6.82;2.67;;;;;;;;;;4956987;28;20055;-74
2023/01/08 11:03:27;;;;;;;5.65;2.25;;;;;;;;;;4951598;28;20046;-73
2023/01/08 11:05:54;;;;;;;4.38;2.58;;;;;;;;;;4956590;28;20067;-73
2023/01/08 11:08:21;;;;;;;7.13;2.83;;;;;;;;;;4953796;28;20436;-72
2023/01/08 11:10:58;;;;;;;5.80;2.17;;;;;;;;;;4960065;28;20513;-77
2023/01/08 11:13:25;;;;;;;4.82;1.95;;;;;;;;;;4960204;28;20166;-76
2023/01/08 11:16:11;;;;;;;7.18;2.97;;;;;;;;;;4954237;28;20047;-78
2023/01/08 11:18:49;;;;;;;4.28;2.03;;;;;;;;;;4958825;28;20149;-74
2023/01/08 11:21:21;;;;;;;3.38;2.00;;;;;;;;;;4953967;28;20849;-67
2023/01/08 11:23:59;;;;;;;6.13;1.95;;;;;;;;;;4954371;28;20051;-71
2023/01/08 11:26:25;;;;;;;7.25;1.88;;;;;;;;;;4956623;28;20065;-74
2023/01/08 11:29:14;;;;;;;7.75;1.30;;;;;;;;;;4959451;28;20915;-72
2023/01/08 11:32:12;;;;;;;7.65;0.93;;;;;;;;;;4956621;28;20050;-80
2023/01/08 11:35:02;;;;;;;8.00;0.75;;;;;;;;;;4949455;28;20067;-75
2023/01/08 11:37:32;;;;;;;5.55;0.73;;;;;;;;;;4937335;28;20050;-73
2023/01/08 11:39:58;;;;;;;5.63;0.70;;;;;;;;;;4955109;28;20133;-71
2023/01/08 11:43:02;;;;;;;1.95;0.50;;;;;;;;;;4959778;28;20054;-69
2023/01/08 11:45:45;;;;;;;4.47;1.40;;;;;;;;;;4951334;28;20556;-71
2023/01/08 11:48:36;;;;;;;7.65;0.90;;;;;;;;;;4955368;28;20059;-69
2023/01/08 11:51:44;;;;;;;3.50;0.65;;;;;;;;;;4952088;28;20568;-75
2023/01/08 11:54:14;;;;;;;2.38;0.60;;;;;;;;;;4952574;28;20031;-68
2023/01/08 11:56:55;;;;;;;5.00;1.02;;;;;;;;;;4959971;28;20081;-73
2023/01/08 11:59:47;;;;;;;4.90;1.45;;;;;;;;;;4954770;28;20047;-73
2023/01/08 12:02:47;;;;;;;2.50;0.70;;;;;;;;;;4943269;28;20775;-74
2023/01/08 12:05:33;;;;;;;1.00;0.70;;;;;;;;;;4946750;28;20058;-77
2023/01/08 12:08:25;;;;;;;0.95;0.60;;;;;;;;;;4947777;28;20198;-77
2023/01/08 12:11:00;;;;;;;3.70;0.75;;;;;;;;;;4953769;28;20216;-72
2023/01/08 12:13:51;;;;;;;4.93;0.60;;;;;;;;;;4947882;28;20047;-79
2023/01/08 12:16:24;;;;;;;1.73;0.60;;;;;;;;;;4957725;28;20069;-74
2023/01/08 12:19:29;;;;;;;2.63;0.77;;;;;;;;;;4956423;28;21175;-72
2023/01/08 12:22:14;;;;;;;;;;;;;;;;;;4960214;28;20620;-73
2023/01/08 12:24:40;;;;;;;4.80;0.80;;;;;;;;;;4951450;28;19934;-70
2023/01/08 12:27:09;;;;;;;1.15;0.60;;;;;;;;;;4952238;28;20635;-76
2023/01/08 12:29:34;;;;;;;8.02;0.80;;;;;;;;;;4950081;28;20043;-70
2023/01/08 12:32:42;;;;;;;3.03;0.73;;;;;;;;;;4947643;28;20047;-71
2023/01/08 12:35:21;;;;;;;2.92;0.60;;;;;;;;;;4947959;28;20047;-72
2023/01/08 12:37:57;;;;;;;1.58;0.70;;;;;;;;;;4948959;28;20047;-76
2023/01/08 12:40:31;;;;;;;2.67;0.90;;;;;;;;;;4944941;28;20057;-74
2023/01/08 12:42:59;;;;;;;4.80;1.35;;;;;;;;;;4954832;28;20069;-76
2023/01/08 12:45:44;;;;;;;2.92;0.65;;;;;;;;;;4947779;28;20047;-73
2023/01/08 12:48:20;;;;;;;4.15;0.90;;;;;;;;;;4958142;28;20050;-74
2023/01/08 12:51:00;;;;;;;1.98;0.82;;;;;;;;;;4959647;28;20475;-70
2023/01/08 12:53:41;;;;;;;0.98;0.70;;;;;;;;;;4955143;28;20059;-73
2023/01/08 12:56:14;;;;;;;0.93;0.50;;;;;;;;;;4958362;28;20456;-76
2023/01/08 12:59:10;;;;;;;1.67;0.93;;;;;;;;;;4958402;28;20090;-78
2023/01/08 13:01:51;;;;;;;1.45;0.70;;;;;;;;;;4950925;28;20046;-76
2023/01/08 13:04:18;;;;;;;2.10;0.70;;;;;;;;;;4951713;28;20055;-74
2023/01/08 13:07:25;;;;;;;3.40;0.70;;;;;;;;;;4955081;28;20039;-73
2023/01/08 13:09:56;;;;;;;3.47;0.70;;;;;;;;;;4953917;28;20051;-75
2023/01/08 13:12:32;;;;;;;5.35;0.88;;;;;;;;;;4949810;28;20043;-71
2023/01/08 13:14:59;;;;;;;3.15;0.90;;;;;;;;;;4952847;28;20058;-71
2023/01/08 13:17:26;;;;;;;1.02;0.60;;;;;;;;;;4952349;28;20043;-81
2023/01/08 13:19:58;;;;;;;3.78;0.65;;;;;;;;;;4956129;28;20059;-77
2023/01/08 13:22:27;;;;;;;2.10;0.63;;;;;;;;;;4950431;28;20074;-77
2023/01/08 13:25:12;;;;;;;1.67;0.60;;;;;;;;;;4951697;28;20050;-72
2023/01/08 13:27:38;;;;;;;3.42;0.90;;;;;;;;;;4949260;28;20150;-75
2023/01/08 13:30:30;;;;;;;5.30;1.42;;;;;;;;;;4950627;28;20817;-78
2023/01/08 13:32:56;;;;;;;1.92;0.80;;;;;;;;;;4950340;28;20047;-75
2023/01/08 13:35:25;;;;;;;1.45;0.85;;;;;;;;;;4953629;28;20505;-72
2023/01/08 13:38:11;;;;;;;0.90;0.50;;;;;;;;;;4956874;28;20051;-69
2023/01/08 13:40:43;;;;;;;3.38;0.90;;;;;;;;;;4953618;28;20556;-75
2023/01/08 13:43:26;;;;;;;2.92;0.90;;;;;;;;;;4956214;28;20066;-79
2023/01/08 13:45:58;;;;;;;2.90;1.13;;;;;;;;;;4949288;28;20050;-74
2023/01/08 13:48:30;;;;;;;2.38;0.75;;;;;;;;;;4952775;28;20050;-68
2023/01/08 13:50:56;;;;;;;1.73;0.75;;;;;;;;;;4950221;28;20516;-72
2023/01/08 13:53:23;;;;;;;2.00;0.40;;;;;;;;;;4953464;28;20489;-69
2023/01/08 13:55:59;;;;;;;1.40;0.75;;;;;;;;;;4955061;28;20065;-76
2023/01/08 13:58:28;;;;;;;2.03;0.73;;;;;;;;;;4956343;28;20054;-72
2023/01/08 14:00:55;;;;;;;2.58;0.77;;;;;;;;;;4956737;28;20073;-76
2023/01/08 14:03:33;;;;;;;2.55;0.60;;;;;;;;;;4951834;28;20622;-69
2023/01/08 14:06:27;;;;;;;1.13;0.77;;;;;;;;;;4956680;28;20101;-73
2023/01/08 14:09:01;;;;;;;1.27;0.70;;;;;;;;;;4958010;28;20070;-70
2023/01/08 14:11:31;;;;;;;1.73;0.50;;;;;;;;;;4963340;28;20059;-74
2023/01/08 14:13:57;;;;;;;3.20;0.70;;;;;;;;;;4959180;28;20051;-73
2023/01/08 14:16:23;;;;;;;0.47;0.40;;;;;;;;;;4955110;28;20062;-78
2023/01/08 14:18:50;;;;;;;1.30;0.52;;;;;;;;;;4963810;28;20042;-68
2023/01/08 14:21:21;;;;;;;1.42;0.70;;;;;;;;;;4956505;28;20051;-75
2023/01/08 14:23:50;;;;;;;4.70;1.35;;;;;;;;;;4954758;28;20441;-74
2023/01/08 14:26:34;;;;;;;2.55;0.70;;;;;;;;;;4965150;28;20620;-69
2023/01/08 14:29:10;;;;;;;1.02;0.60;;;;;;;;;;4962016;28;20331;-73
2023/01/08 14:31:36;;;;;;;0.90;0.60;;;;;;;;;;4959933;28;20117;-75
2023/01/08 14:34:04;;;;;;;3.63;1.30;;;;;;;;;;4954771;28;20867;-75
2023/01/08 14:36:30;;;;;;;1.98;0.70;;;;;;;;;;4954721;28;20080;-75
2023/01/08 14:38:56;;;;;;;1.95;0.70;;;;;;;;;;4959697;28;20082;-73
2023/01/08 14:44:20;;;;;;;3.13;0.70;;;;;;;;;;4952991;28;20059;-72
2023/01/08 14:46:47;;;;;;;2.20;0.60;;;;;;;;;;4951440;28;20047;-75
2023/01/08 14:49:21;;;;;;;0.80;0.68;;;;;;;;;;4956405;28;20043;-72
2023/01/08 14:51:47;;;;;;;;;;;;;;;;;;4952515;28;20074;-73
2023/01/08 14:54:23;;;;;;;1.10;0.68;;;;;;;;;;4961631;28;19926;-81
2023/01/08 14:56:53;;;;;;;7.47;0.75;;;;;;;;;;4966277;28;20065;-75
2023/01/08 14:59:20;;;;;;;1.92;0.77;;;;;;;;;;4955460;28;20082;-72
2023/01/08 15:01:55;;;;;;;0.30;0.30;;;;;;;;;;4958334;28;20469;-70
2023/01/08 15:04:22;;;;;;;0.50;0.50;;;;;;;;;;4953079;28;20051;-70
2023/01/08 15:06:50;;;;;;;1.15;0.60;;;;;;;;;;4951780;28;20445;-73